Time;durP1;ratioP1;P1;durP2;ratioP2;P2;SDS_P1;SDS_P2;PMS_P1;PMS_P2;Temp;Humidity;BMP_temperature;BMP_pressure;BME280_temperature;BME280_humidity;BME280_pressure;Samples;Min_cycle;Max_cycle;Signal;HPM_P1;HPM_P2
2023/09/26 00:00:33;;;;;;;2.00;1.50;;;;;;;11.78;100.00;96818.03;5078078;28;20736;-69
2023/09/26 00:03:00;;;;;;;2.30;1.57;;;;;;;11.95;100.00;96821.44;5079272;28;20230;-68
2023/09/26 00:05:27;;;;;;;2.00;1.67;;;;;;;11.95;100.00;96818.81;5077914;28;20207;-69
2023/09/26 00:07:54;;;;;;;2.67;1.80;;;;;;;11.97;100.00;96816.84;5079121;28;20315;-68
2023/09/26 00:10:21;;;;;;;2.80;1.90;;;;;;;11.92;100.00;96819.16;5078751;28;20596;-68
2023/09/26 00:12:48;;;;;;;2.57;1.63;;;;;;;11.74;100.00;96815.94;5078992;28;20204;-68
2023/09/26 00:15:16;;;;;;;3.10;2.03;;;;;;;11.90;100.00;96821.97;5077049;28;20214;-68
2023/09/26 00:17:43;;;;;;;2.87;2.00;;;;;;;11.65;100.00;96820.41;5079563;28;20196;-68
2023/09/26 00:20:27;;;;;;;3.23;1.70;;;;;;;11.79;100.00;96821.53;5078000;28;20227;-68
2023/09/26 00:22:54;;;;;;;3.43;2.00;;;;;;;11.57;100.00;96815.16;5077376;28;20281;-69
2023/09/26 00:25:21;;;;;;;2.27;1.67;;;;;;;11.52;100.00;96814.00;5077656;28;20199;-68
2023/09/26 00:27:47;;;;;;;3.43;1.87;;;;;;;11.66;100.00;96813.31;5078668;28;20601;-68
2023/09/26 00:30:16;;;;;;;3.43;1.90;;;;;;;11.70;100.00;96819.91;5078037;28;20243;-69
2023/09/26 00:32:43;;;;;;;3.73;1.90;;;;;;;11.65;100.00;96816.94;5077864;28;20204;-68
2023/09/26 00:35:12;;;;;;;4.63;2.50;;;;;;;11.71;100.00;96824.16;5076796;28;21325;-68
2023/09/26 00:37:38;;;;;;;3.07;1.90;;;;;;;11.65;100.00;96820.41;5077355;28;20204;-68
2023/09/26 00:40:10;;;;;;;3.20;1.80;;;;;;;11.63;100.00;96824.19;5077671;28;20231;-69
2023/09/26 00:42:37;;;;;;;2.63;1.83;;;;;;;11.46;100.00;96833.13;5076859;28;20214;-68
2023/09/26 00:45:05;;;;;;;2.83;1.80;;;;;;;11.57;100.00;96833.63;5077472;28;20200;-68
2023/09/26 00:47:34;;;;;;;3.33;2.20;;;;;;;11.71;100.00;96837.38;5076550;28;20327;-68
2023/09/26 00:50:02;;;;;;;3.13;1.90;;;;;;;11.81;100.00;96838.84;5078286;28;20287;-68
2023/09/26 00:52:29;;;;;;;2.97;2.03;;;;;;;11.73;100.00;96840.66;5076792;28;20822;-69
2023/09/26 00:54:57;;;;;;;3.77;2.03;;;;;;;11.68;100.00;96835.91;5077243;28;20669;-68
2023/09/26 00:57:23;;;;;;;3.30;1.73;;;;;;;11.51;100.00;96844.03;5077498;28;20196;-68
2023/09/26 00:59:50;;;;;;;3.03;1.80;;;;;;;11.53;100.00;96839.38;5076691;28;20207;-68
2023/09/26 01:02:16;;;;;;;1.97;1.50;;;;;;;11.53;100.00;96838.56;5077895;28;20207;-68
2023/09/26 01:04:44;;;;;;;3.13;1.97;;;;;;;11.54;100.00;96838.41;5075967;28;20681;-69
2023/09/26 01:07:11;;;;;;;2.37;1.60;;;;;;;11.33;100.00;96827.53;5077572;28;20226;-68
2023/09/26 01:09:37;;;;;;;3.33;1.90;;;;;;;11.29;100.00;96831.50;5076594;28;20215;-68
2023/09/26 01:12:05;;;;;;;2.80;1.83;;;;;;;11.36;100.00;96835.09;5078171;28;20211;-68
2023/09/26 01:14:32;;;;;;;3.00;2.03;;;;;;;11.29;100.00;96820.94;5076612;28;20207;-68
2023/09/26 01:16:58;;;;;;;3.60;2.20;;;;;;;11.25;100.00;96819.63;5077126;28;20805;-68
2023/09/26 01:19:24;;;;;;;3.47;2.37;;;;;;;11.20;100.00;96816.69;5077295;28;20196;-68
2023/09/26 01:21:53;;;;;;;3.77;2.53;;;;;;;11.47;100.00;96818.09;5076514;28;20250;-69
2023/09/26 01:24:21;;;;;;;4.00;2.50;;;;;;;11.44;100.00;96813.97;5077733;28;20195;-68
2023/09/26 01:26:48;;;;;;;2.30;1.90;;;;;;;11.30;100.00;96812.06;5076101;28;20220;-69
2023/09/26 01:29:15;;;;;;;4.13;2.80;;;;;;;11.19;100.00;96822.94;5077123;28;20207;-68
2023/09/26 01:31:42;;;;;;;3.17;2.27;;;;;;;11.21;100.00;96809.56;5075095;28;20335;-68
2023/09/26 01:34:09;;;;;;;4.23;2.37;;;;;;;11.27;100.00;96817.63;5078900;28;20216;-69
2023/09/26 01:36:35;;;;;;;4.30;2.37;;;;;;;11.23;100.00;96811.06;5075149;28;20257;-68
2023/09/26 01:39:02;;;;;;;4.60;2.53;;;;;;;11.12;100.00;96814.03;5077661;28;20196;-68
2023/09/26 01:41:30;;;;;;;4.00;2.33;;;;;;;11.20;100.00;96811.41;5076058;28;20219;-68
2023/09/26 01:43:57;;;;;;;3.70;2.40;;;;;;;11.17;100.00;96806.44;5077537;28;20207;-68
2023/09/26 01:46:24;;;;;;;3.17;2.10;;;;;;;11.17;100.00;96801.16;5076393;28;20211;-68
2023/09/26 01:48:51;;;;;;;2.67;2.00;;;;;;;11.22;100.00;96805.94;5076428;28;20199;-68
2023/09/26 01:51:17;;;;;;;6.37;2.40;;;;;;;11.22;100.00;96808.59;5076670;28;20223;-68
2023/09/26 01:53:44;;;;;;;3.83;2.00;;;;;;;11.15;100.00;96804.94;5075496;28;20681;-68
2023/09/26 01:56:10;;;;;;;4.93;2.53;;;;;;;11.14;100.00;96805.97;5076693;28;20945;-69
2023/09/26 01:58:38;;;;;;;3.90;2.40;;;;;;;11.37;100.00;96807.75;5074582;28;20192;-68
2023/09/26 02:01:05;;;;;;;3.50;2.37;;;;;;;11.22;100.00;96809.41;5076941;28;20224;-68
2023/09/26 02:03:32;;;;;;;3.73;2.37;;;;;;;11.14;100.00;96809.41;5075838;28;20623;-68
2023/09/26 02:05:59;;;;;;;3.23;2.07;;;;;;;11.12;100.00;96808.75;5076555;28;20200;-68
2023/09/26 02:08:25;;;;;;;4.60;2.37;;;;;;;11.02;100.00;96807.28;5076312;28;20230;-68
2023/09/26 02:10:52;;;;;;;5.03;2.97;;;;;;;11.03;100.00;96804.47;5075719;28;20219;-68
2023/09/26 02:13:18;;;;;;;4.50;2.20;;;;;;;10.98;100.00;96804.16;5076078;28;20242;-69
2023/09/26 02:15:46;;;;;;;5.53;3.20;;;;;;;11.00;100.00;96794.25;5074898;28;20200;-68
2023/09/26 02:18:13;;;;;;;3.67;2.70;;;;;;;10.74;100.00;96805.97;5076601;28;20195;-68
2023/09/26 02:20:39;;;;;;;4.07;2.50;;;;;;;10.78;100.00;96804.66;5075729;28;20219;-68
2023/09/26 02:23:06;;;;;;;3.77;2.50;;;;;;;10.69;100.00;96810.09;5076284;28;20208;-68
2023/09/26 02:25:32;;;;;;;5.30;3.20;;;;;;;10.61;100.00;96808.25;5075550;28;20203;-68
2023/09/26 02:27:59;;;;;;;8.00;4.03;;;;;;;10.70;100.00;96806.47;5075290;28;20220;-68
2023/09/26 02:30:28;;;;;;;3.27;2.40;;;;;;;10.87;100.00;96802.84;5076362;28;20223;-68
2023/09/26 02:32:56;;;;;;;4.53;2.80;;;;;;;10.92;100.00;96806.66;5075174;28;20200;-68
2023/09/26 02:35:23;;;;;;;3.30;2.20;;;;;;;10.78;100.00;96803.81;5075335;28;20204;-68
2023/09/26 02:37:49;;;;;;;6.83;2.40;;;;;;;10.81;100.00;96806.97;5075126;28;20214;-68
2023/09/26 02:40:16;;;;;;;3.67;2.37;;;;;;;10.81;100.00;96796.41;5076104;28;20227;-68
2023/09/26 02:42:44;;;;;;;4.67;2.40;;;;;;;10.89;100.00;96799.03;5073157;28;20222;-68
2023/09/26 02:45:11;;;;;;;4.97;2.53;;;;;;;10.84;100.00;96795.28;5075016;28;20203;-68
2023/09/26 02:47:38;;;;;;;3.67;2.37;;;;;;;10.63;100.00;96790.47;5075557;28;20300;-68
2023/09/26 02:50:07;;;;;;;3.20;2.10;;;;;;;10.72;100.00;96794.78;5076357;28;20248;-68
2023/09/26 02:52:34;;;;;;;5.43;2.27;;;;;;;10.50;100.00;96794.56;5074863;28;20241;-68
2023/09/26 02:55:01;;;;;;;5.60;2.60;;;;;;;10.58;100.00;96787.50;5074340;28;20578;-68
2023/09/26 02:57:28;;;;;;;4.77;2.97;;;;;;;10.50;100.00;96787.50;5076084;28;20560;-68
2023/09/26 02:59:55;;;;;;;5.47;2.57;;;;;;;10.49;100.00;96792.94;5074951;28;20231;-68
2023/09/26 03:02:21;;;;;;;3.97;3.03;;;;;;;10.47;100.00;96792.28;5075808;28;20226;-68
2023/09/26 03:04:49;;;;;;;4.37;2.23;;;;;;;10.58;100.00;96791.97;5074005;28;20219;-68
2023/09/26 03:07:17;;;;;;;2.77;2.03;;;;;;;10.76;100.00;96793.44;5075986;28;20223;-68
2023/09/26 03:09:44;;;;;;;3.07;2.10;;;;;;;10.60;100.00;96785.56;5074815;28;20196;-68
2023/09/26 03:12:10;;;;;;;3.83;2.37;;;;;;;10.64;100.00;96786.03;5075919;28;20633;-68
2023/09/26 03:14:37;;;;;;;3.40;2.03;;;;;;;10.56;100.00;96791.28;5074572;28;20196;-68
2023/09/26 03:17:05;;;;;;;3.07;2.03;;;;;;;10.56;100.00;96789.47;5074734;28;20203;-68
2023/09/26 03:19:32;;;;;;;1.97;1.50;;;;;;;10.57;100.00;96788.50;5075532;28;20195;-68
2023/09/26 03:21:58;;;;;;;2.10;1.90;;;;;;;10.63;100.00;96789.66;5073980;28;20227;-69
2023/09/26 03:24:26;;;;;;;3.40;1.57;;;;;;;10.88;100.00;96791.31;5075317;28;20210;-68
2023/09/26 03:26:53;;;;;;;2.83;2.10;;;;;;;10.54;100.00;96782.75;5073568;28;20203;-68
2023/09/26 03:29:19;;;;;;;2.33;1.83;;;;;;;10.55;100.00;96792.28;5075762;28;20208;-68
2023/09/26 03:31:46;;;;;;;3.53;1.93;;;;;;;10.66;100.00;96795.41;5074435;28;20227;-68
2023/09/26 03:34:12;;;;;;;3.23;2.13;;;;;;;10.71;100.00;96792.31;5076015;28;20204;-68
2023/09/26 03:36:39;;;;;;;2.80;1.63;;;;;;;10.89;100.00;96795.59;5074522;28;20674;-68
2023/09/26 03:39:06;;;;;;;3.40;2.07;;;;;;;10.88;100.00;96788.66;5074982;28;20192;-68
2023/09/26 03:41:34;;;;;;;7.80;2.07;;;;;;;11.17;100.00;96793.25;5075311;28;20219;-68
2023/09/26 03:44:00;;;;;;;5.67;2.00;;;;;;;11.00;100.00;96781.06;5074092;28;20204;-68
2023/09/26 03:46:27;;;;;;;3.90;2.10;;;;;;;10.97;100.00;96780.56;5074346;28;20206;-68
2023/09/26 03:48:53;;;;;;;4.90;2.60;;;;;;;11.00;100.00;96789.00;5074223;28;20234;-68
2023/09/26 03:51:20;;;;;;;4.60;2.50;;;;;;;11.05;100.00;96791.94;5075127;28;20228;-68
2023/09/26 03:53:48;;;;;;;3.07;1.97;;;;;;;10.92;100.00;96790.81;5074127;28;20207;-68
2023/09/26 03:56:14;;;;;;;3.30;1.80;;;;;;;11.00;100.00;96794.25;5074048;28;21048;-68
2023/09/26 03:58:44;;;;;;;3.73;1.80;;;;;;;11.20;100.00;96792.09;5075612;28;20200;-68
2023/09/26 04:01:12;;;;;;;2.67;1.97;;;;;;;11.23;100.00;96784.66;5074192;28;20219;-68
2023/09/26 04:03:38;;;;;;;3.60;2.07;;;;;;;11.24;100.00;96791.59;5074929;28;20211;-68
2023/09/26 04:06:05;;;;;;;3.33;1.73;;;;;;;11.12;100.00;96787.66;5074422;28;20203;-69
2023/09/26 04:08:32;;;;;;;3.20;2.10;;;;;;;11.23;100.00;96789.13;5075320;28;21067;-68
2023/09/26 04:10:58;;;;;;;3.73;2.20;;;;;;;11.15;100.00;96786.50;5073527;28;20225;-68
2023/09/26 04:13:25;;;;;;;3.53;1.90;;;;;;;11.22;100.00;96785.66;5074845;28;20693;-69
2023/09/26 04:15:53;;;;;;;2.53;2.10;;;;;;;11.41;100.00;96785.28;5072663;28;20674;-68
2023/09/26 04:18:20;;;;;;;2.93;1.87;;;;;;;11.26;100.00;96779.06;5074919;28;20764;-68
2023/09/26 04:20:46;;;;;;;3.43;1.90;;;;;;;11.33;100.00;96780.03;5074652;28;20580;-68
2023/09/26 04:23:13;;;;;;;4.60;2.50;;;;;;;11.38;100.00;96783.00;5078323;28;20681;-68
2023/09/26 04:25:39;;;;;;;2.77;2.00;;;;;;;11.37;100.00;96783.19;5077442;28;20200;-68
2023/09/26 04:28:07;;;;;;;2.60;1.67;;;;;;;11.45;100.00;96773.41;5077057;28;20313;-69
2023/09/26 04:30:37;;;;;;;4.13;2.40;;;;;;;11.47;100.00;96779.34;5077936;28;20219;-68
2023/09/26 04:33:05;;;;;;;6.17;2.43;;;;;;;11.23;100.00;96778.59;5076968;28;20688;-68
2023/09/26 04:35:32;;;;;;;5.50;2.33;;;;;;;11.03;100.00;96777.28;5077814;28;20344;-68
2023/09/26 04:37:58;;;;;;;5.37;2.77;;;;;;;10.84;100.00;96782.91;5078220;28;20564;-69
2023/09/26 04:40:25;;;;;;;8.13;3.10;;;;;;;10.89;100.00;96780.59;5078440;28;20224;-69
2023/09/26 04:42:52;;;;;;;8.83;3.77;;;;;;;10.77;100.00;96775.81;5077930;28;20199;-68
2023/09/26 04:45:18;;;;;;;11.23;4.33;;;;;;;10.71;100.00;96776.50;5077555;28;20208;-68
2023/09/26 04:47:45;;;;;;;7.33;3.70;;;;;;;10.84;100.00;96776.81;5077871;28;20235;-68
2023/09/26 04:50:13;;;;;;;12.03;4.47;;;;;;;10.99;100.00;96776.78;5077710;28;20216;-68
2023/09/26 04:52:39;;;;;;;8.53;4.10;;;;;;;10.87;100.00;96772.03;5076971;28;20245;-68
2023/09/26 04:55:06;;;;;;;7.87;3.80;;;;;;;10.86;100.00;96785.38;5076666;28;20204;-69
2023/09/26 04:57:33;;;;;;;8.73;3.13;;;;;;;11.10;100.00;96787.00;5077527;28;20196;-69
2023/09/26 05:00:00;;;;;;;12.60;4.67;;;;;;;11.42;100.00;96791.38;5076992;28;20750;-69
2023/09/26 05:02:26;;;;;;;9.00;3.87;;;;;;;11.39;100.00;96789.94;5077450;28;20196;-68
2023/09/26 05:04:53;;;;;;;9.50;4.17;;;;;;;11.14;100.00;96793.59;5077123;28;20208;-68
2023/09/26 05:07:20;;;;;;;9.23;4.30;;;;;;;10.91;100.00;96798.88;5077452;28;20210;-68
2023/09/26 05:09:47;;;;;;;10.97;4.77;;;;;;;10.71;100.00;96803.66;5077208;28;20604;-69
2023/09/26 05:12:13;;;;;;;8.30;4.60;;;;;;;10.59;100.00;96812.03;5078227;28;20200;-68
2023/09/26 05:14:40;;;;;;;8.40;3.77;;;;;;;10.64;100.00;96801.84;5077175;28;20313;-69
2023/09/26 05:17:06;;;;;;;6.07;3.80;;;;;;;10.59;100.00;96806.78;5077466;28;20203;-71
2023/09/26 05:19:33;;;;;;;8.73;3.50;;;;;;;10.89;100.00;96795.59;5078220;28;20572;-70
2023/09/26 05:21:59;;;;;;;8.90;4.50;;;;;;;10.98;100.00;96798.91;5076338;28;20235;-70
2023/09/26 05:24:27;;;;;;;6.77;3.33;;;;;;;11.11;100.00;96803.63;5076590;28;20195;-71
2023/09/26 05:26:53;;;;;;;8.07;3.93;;;;;;;10.91;100.00;96805.00;5077192;28;20200;-70
2023/09/26 05:29:20;;;;;;;6.23;3.17;;;;;;;10.93;100.00;96801.19;5077867;28;20226;-70
2023/09/26 05:31:47;;;;;;;7.37;3.70;;;;;;;11.01;100.00;96806.47;5076294;28;20227;-68
2023/09/26 05:34:13;;;;;;;7.67;3.63;;;;;;;11.08;100.00;96801.34;5077085;28;20209;-71
2023/09/26 05:36:40;;;;;;;7.17;3.37;;;;;;;11.09;100.00;96806.44;5076572;28;20200;-69
2023/09/26 05:39:06;;;;;;;6.43;3.07;;;;;;;10.94;100.00;96810.75;5076989;28;20474;-71
2023/09/26 05:41:34;;;;;;;7.00;3.37;;;;;;;11.22;100.00;96805.94;5077585;28;20243;-71
2023/09/26 05:44:01;;;;;;;6.03;3.43;;;;;;;11.16;100.00;96810.09;5075641;28;20207;-72
2023/09/26 05:46:27;;;;;;;7.53;4.33;;;;;;;11.27;100.00;96806.28;5076585;28;20199;-69
2023/09/26 05:48:54;;;;;;;8.63;4.27;;;;;;;11.39;100.00;96800.50;5076220;28;20231;-69
2023/09/26 05:51:20;;;;;;;6.10;3.37;;;;;;;11.48;100.00;96817.09;5079039;28;20702;-72
2023/09/26 05:53:47;;;;;;;7.63;3.07;;;;;;;11.56;100.00;96807.41;5079092;28;20203;-71
2023/09/26 05:56:13;;;;;;;12.10;4.07;;;;;;;11.62;100.00;96812.81;5079314;28;20936;-71
2023/09/26 05:58:41;;;;;;;7.33;4.13;;;;;;;11.86;100.00;96811.91;5079197;28;20204;-71
2023/09/26 06:01:08;;;;;;;7.70;3.97;;;;;;;11.81;100.00;96811.59;5076278;28;20731;-72
2023/09/26 06:03:35;;;;;;;9.60;5.20;;;;;;;11.85;100.00;96812.91;5076776;28;20200;-70
2023/09/26 06:06:03;;;;;;;8.77;4.43;;;;;;;12.13;100.00;96811.47;5074685;28;20210;-70
2023/09/26 06:08:30;;;;;;;14.30;5.27;;;;;;;12.13;100.00;96803.53;5077036;28;20219;-70
2023/09/26 06:10:56;;;;;;;12.77;6.37;;;;;;;12.14;100.00;96811.28;5075023;28;20724;-69
2023/09/26 06:13:23;;;;;;;13.57;6.40;;;;;;;12.25;100.00;96809.09;5076617;28;20215;-69
2023/09/26 06:15:51;;;;;;;9.50;4.97;;;;;;;12.10;100.00;96812.63;5075260;28;20206;-69
2023/09/26 06:18:18;;;;;;;13.67;6.00;;;;;;;12.00;100.00;96811.19;5076498;28;21347;-69
2023/09/26 06:20:45;;;;;;;13.93;5.67;;;;;;;12.11;100.00;96813.47;5075461;28;20223;-70
2023/09/26 06:23:12;;;;;;;10.77;5.33;;;;;;;12.29;100.00;96820.94;5075678;28;20686;-70
2023/09/26 06:25:39;;;;;;;13.43;6.40;;;;;;;12.31;100.00;96821.59;5074817;28;21034;-70
2023/09/26 06:28:07;;;;;;;14.53;5.30;;;;;;;12.26;100.00;96818.66;5071957;28;20228;-70
2023/09/26 06:30:34;;;;;;;11.67;5.33;;;;;;;12.30;100.00;96822.59;5075029;28;20817;-70
2023/09/26 06:33:02;;;;;;;11.33;5.23;;;;;;;12.30;100.00;96822.59;5073522;28;20258;-71
2023/09/26 06:35:31;;;;;;;13.87;6.53;;;;;;;12.49;100.00;96824.81;5072401;28;20196;-70
2023/09/26 06:37:58;;;;;;;15.67;5.63;;;;;;;12.47;100.00;96826.78;5075760;28;20770;-70
2023/09/26 06:40:26;;;;;;;13.00;5.60;;;;;;;12.61;100.00;96818.09;5074799;28;20223;-71
2023/09/26 06:42:52;;;;;;;11.80;6.27;;;;;;;12.64;100.00;96817.78;5074402;28;20211;-70
2023/09/26 06:45:19;;;;;;;11.80;5.93;;;;;;;12.65;100.00;96816.75;5073038;28;21338;-70
2023/09/26 06:47:46;;;;;;;13.00;6.03;;;;;;;12.74;100.00;96820.19;5075347;28;20204;-70
2023/09/26 06:50:14;;;;;;;12.27;5.77;;;;;;;12.97;100.00;96813.91;5074138;28;20219;-70
2023/09/26 06:52:40;;;;;;;12.40;6.23;;;;;;;12.88;100.00;96814.97;5075708;28;21056;-71
2023/09/26 06:55:10;;;;;;;13.43;5.90;;;;;;;12.86;100.00;96822.28;5072893;28;20698;-70
2023/09/26 06:57:36;;;;;;;11.40;5.95;;;;;;;12.86;100.00;96824.94;5074959;28;20204;-70
2023/09/26 07:00:14;;;;;;;13.25;5.82;;;;;;;12.91;100.00;96823.38;5073492;28;20961;-70
2023/09/26 07:02:41;;;;;;;14.23;6.57;;;;;;;13.09;100.00;96817.81;5074593;28;20360;-70
2023/09/26 07:05:08;;;;;;;12.03;5.90;;;;;;;13.05;100.00;96824.44;5072774;28;20350;-69
2023/09/26 07:07:36;;;;;;;14.37;6.63;;;;;;;13.27;100.00;96826.25;5075220;28;20364;-69
2023/09/26 07:10:04;;;;;;;19.15;8.05;;;;;;;13.17;100.00;96825.66;5073732;28;20223;-69
2023/09/26 07:12:32;;;;;;;13.90;6.63;;;;;;;13.23;100.00;96820.47;5073656;28;20265;-69
2023/09/26 07:14:58;;;;;;;13.50;7.20;;;;;;;13.17;100.00;96830.97;5073950;28;20248;-70
2023/09/26 07:17:25;;;;;;;18.97;7.40;;;;;;;13.11;100.00;96829.00;5073721;28;21011;-70
2023/09/26 07:19:51;;;;;;;12.95;5.72;;;;;;;13.20;100.00;96826.13;5074550;28;20211;-70
2023/09/26 07:22:18;;;;;;;14.97;7.10;;;;;;;13.22;100.00;96821.47;5073656;28;20200;-69
2023/09/26 07:24:50;;;;;;;15.77;6.85;;;;;;;13.38;100.00;96821.34;5074891;28;20207;-69
2023/09/26 07:27:17;;;;;;;12.93;6.72;;;;;;;13.28;100.00;96815.47;5074026;28;20222;-71
2023/09/26 07:29:45;;;;;;;13.97;6.30;;;;;;;13.44;100.00;96815.31;5074921;28;20219;-70
2023/09/26 07:32:12;;;;;;;16.05;6.43;;;;;;;13.25;100.00;96817.66;5074806;28;20195;-69
2023/09/26 07:34:38;;;;;;;15.63;6.90;;;;;;;13.58;100.00;96814.50;5074757;28;20567;-70
2023/09/26 07:37:05;;;;;;;17.70;6.87;;;;;;;13.66;100.00;96819.72;5074401;28;20203;-69
2023/09/26 07:39:32;;;;;;;14.10;6.75;;;;;;;13.76;100.00;96818.44;5074352;28;20195;-69
2023/09/26 07:41:59;;;;;;;14.33;7.03;;;;;;;13.89;100.00;96816.00;5070767;28;20224;-69
2023/09/26 07:44:26;;;;;;;17.20;7.53;;;;;;;13.87;100.00;96815.34;5067320;28;20222;-70
2023/09/26 07:46:52;;;;;;;17.05;7.25;;;;;;;13.95;100.00;96820.56;5074119;28;20227;-70
2023/09/26 07:49:19;;;;;;;14.45;6.80;;;;;;;14.03;100.00;96815.16;5073973;28;20746;-70
2023/09/26 07:51:46;;;;;;;15.02;7.03;;;;;;;13.90;100.00;96812.34;5074331;28;20275;-70
2023/09/26 07:54:13;;;;;;;15.00;6.85;;;;;;;13.98;100.00;96819.38;5072609;28;20311;-69
2023/09/26 07:56:39;;;;;;;13.35;6.60;;;;;;;14.18;100.00;96824.75;5076169;28;20195;-69
2023/09/26 07:59:07;;;;;;;18.48;7.45;;;;;;;14.44;100.00;96816.31;5077547;28;20877;-70
2023/09/26 08:01:34;;;;;;;17.55;6.97;;;;;;;14.17;100.00;96822.31;5076728;28;20312;-70
2023/09/26 08:04:01;;;;;;;15.85;7.20;;;;;;;14.51;100.00;96827.81;5077945;28;21123;-70
2023/09/26 08:06:27;;;;;;;17.08;7.60;;;;;;;14.62;100.00;96827.34;5076881;28;20202;-71
2023/09/26 08:08:54;;;;;;;17.20;7.82;;;;;;;14.74;100.00;96819.50;5077144;28;20240;-74
2023/09/26 08:11:21;;;;;;;12.82;6.28;;;;;;;14.52;100.00;96826.81;5077529;28;20311;-75
2023/09/26 08:13:47;;;;;;;12.38;6.25;;;;;;;14.38;100.00;96828.47;5078219;28;20305;-70
2023/09/26 08:16:15;;;;;;;16.85;6.38;;;;;;;14.41;100.00;96820.16;5076781;28;20211;-74
2023/09/26 08:18:42;;;;;;;15.48;6.25;;;;;;;14.42;100.00;96816.50;5077285;28;20215;-72
2023/09/26 08:21:08;;;;;;;14.70;6.25;;;;;;;14.58;100.00;96815.47;5077726;28;21224;-72
2023/09/26 08:23:35;;;;;;;15.55;7.18;;;;;;;14.65;100.00;96817.97;5075974;28;20558;-67
2023/09/26 08:26:03;;;;;;;12.30;5.85;;;;;;;14.83;100.00;96815.72;5077626;28;20222;-68
2023/09/26 08:28:31;;;;;;;12.57;6.30;;;;;;;14.74;100.00;96822.16;5077245;28;20199;-68
2023/09/26 08:31:05;;;;;;;17.70;6.90;;;;;;;14.79;100.00;96816.28;5077610;28;20979;-71
2023/09/26 08:33:33;;;;;;;15.07;6.70;;;;;;;14.99;100.00;96820.78;5077120;28;20559;-70
2023/09/26 08:35:59;;;;;;;14.43;6.07;;;;;;;14.93;100.00;96821.53;5077440;28;20219;-68
2023/09/26 08:38:26;;;;;;;13.15;6.43;;;;;;;15.17;100.00;96818.47;5082048;28;20208;-68
2023/09/26 08:40:52;;;;;;;12.98;6.65;;;;;;;15.10;100.00;96814.16;5078413;28;20243;-69
2023/09/26 08:43:23;;;;;;;16.25;6.95;;;;;;;15.16;100.00;96816.88;5078130;28;20279;-72
2023/09/26 08:45:50;;;;;;;15.80;6.55;;;;;;;15.25;100.00;96813.09;5075989;28;20268;-68
2023/09/26 08:48:17;;;;;;;15.90;7.50;;;;;;;15.25;100.00;96823.72;5076308;28;20207;-72
2023/09/26 08:50:46;;;;;;;13.32;6.32;;;;;;;15.51;100.00;96810.63;5075770;28;20228;-74
2023/09/26 08:53:13;;;;;;;14.20;6.43;;;;;;;15.52;100.00;96818.41;5078190;28;20205;-70
2023/09/26 08:55:40;;;;;;;14.80;6.78;;;;;;;15.25;100.00;96821.88;5075157;28;20204;-71
2023/09/26 08:58:07;;;;;;;13.50;6.30;;;;;;;15.31;100.00;96815.81;5077621;28;20200;-68
2023/09/26 09:00:34;;;;;;;13.15;6.80;;;;;;;15.21;100.00;96814.50;5076022;28;20230;-73
2023/09/26 09:03:00;;;;;;;14.25;6.30;;;;;;;15.50;100.00;96819.63;5076523;28;20204;-68
2023/09/26 09:05:27;;;;;;;12.50;6.47;;;;;;;15.58;100.00;96817.66;5075898;28;20420;-69
2023/09/26 09:07:55;;;;;;;14.48;7.25;;;;;;;15.84;100.00;96815.16;5074638;28;20607;-69
2023/09/26 09:10:22;;;;;;;16.38;8.10;;;;;;;15.99;100.00;96816.69;5076144;28;20223;-69
2023/09/26 09:12:50;;;;;;;13.63;6.70;;;;;;;16.15;100.00;96819.03;5075928;28;20207;-71
2023/09/26 09:15:22;;;;;;;19.95;8.10;;;;;;;16.45;100.00;96823.06;5076056;28;20346;-72
2023/09/26 09:17:50;;;;;;;13.18;6.90;;;;;;;16.47;100.00;96821.03;5076016;28;20671;-69
2023/09/26 09:20:31;;;;;;;18.13;7.22;;;;;;;16.73;100.00;96821.13;5076429;28;20216;-69
2023/09/26 09:23:03;;;;;;;15.13;7.05;;;;;;;16.43;100.00;96827.75;5075628;28;20207;-68
2023/09/26 09:25:35;;;;;;;19.00;7.72;;;;;;;16.66;100.00;96828.25;5075826;28;20287;-69
2023/09/26 09:28:02;;;;;;;16.08;7.50;;;;;;;16.72;100.00;96822.13;5076348;28;20597;-69
2023/09/26 09:30:29;;;;;;;16.55;7.30;;;;;;;16.73;100.00;96824.59;5076525;28;20227;-69
2023/09/26 09:32:57;;;;;;;15.45;6.78;;;;;;;17.12;100.00;96817.50;5077652;28;21033;-68
2023/09/26 09:35:24;;;;;;;15.32;7.78;;;;;;;16.91;100.00;96813.38;5075973;28;20206;-71
2023/09/26 09:37:50;;;;;;;16.17;7.70;;;;;;;16.68;100.00;96815.56;5077139;28;20696;-72
2023/09/26 09:40:20;;;;;;;15.82;6.90;;;;;;;17.10;100.00;96808.09;5075830;28;20212;-70
2023/09/26 09:42:48;;;;;;;17.23;7.55;;;;;;;16.97;100.00;96813.41;5076361;28;20203;-69
2023/09/26 09:45:15;;;;;;;16.08;7.75;;;;;;;17.18;100.00;96816.72;5073913;28;20200;-70
2023/09/26 09:47:44;;;;;;;14.77;6.95;;;;;;;17.29;100.00;96813.44;5076143;28;20199;-69
2023/09/26 09:50:12;;;;;;;15.82;7.38;;;;;;;17.29;100.00;96813.44;5075213;28;20748;-69
2023/09/26 09:52:43;;;;;;;18.27;7.03;;;;;;;17.58;100.00;96807.72;5076559;28;20881;-71
2023/09/26 09:55:16;;;;;;;16.92;6.88;;;;;;;17.46;100.00;96801.34;5076166;28;20208;-70
2023/09/26 09:57:49;;;;;;;16.55;8.75;;;;;;;17.08;100.00;96805.63;5077201;28;20206;-71
2023/09/26 10:00:19;;;;;;;18.08;7.35;;;;;;;16.69;100.00;96803.91;5078039;28;20284;-71
2023/09/26 10:02:46;;;;;;;16.58;6.97;;;;;;;16.98;100.00;96806.22;5077967;28;20204;-68
2023/09/26 10:05:14;;;;;;;18.48;9.00;;;;;;;17.13;100.00;96797.84;5076937;28;20214;-73
2023/09/26 10:07:41;;;;;;;19.95;8.38;;;;;;;17.05;100.00;96791.91;5077556;28;20803;-70
2023/09/26 10:10:11;;;;;;;18.63;7.45;;;;;;;17.37;100.00;96789.25;5078325;28;20235;-67
2023/09/26 10:12:38;;;;;;;16.33;7.43;;;;;;;17.28;100.00;96785.16;5078029;28;20196;-70
2023/09/26 10:15:11;;;;;;;21.27;8.13;;;;;;;17.41;100.00;96782.53;5078348;28;20199;-73
2023/09/26 10:17:39;;;;;;;17.95;8.23;;;;;;;17.85;100.00;96780.00;5077074;28;20661;-70
2023/09/26 10:20:10;;;;;;;13.73;6.70;;;;;;;17.84;100.00;96781.81;5077512;28;20308;-72
2023/09/26 10:22:38;;;;;;;13.93;6.30;;;;;;;18.05;100.00;96778.09;5077835;28;20203;-68
2023/09/26 10:25:07;;;;;;;19.67;8.07;;;;;;;18.19;100.00;96785.88;5077274;28;20208;-69
2023/09/26 10:27:43;;;;;;;15.48;7.22;;;;;;;18.57;100.00;96782.22;5078294;28;20207;-73
2023/09/26 10:30:14;;;;;;;20.85;7.22;;;;;;;18.74;100.00;96787.91;5077738;28;20227;-69
2023/09/26 10:32:42;;;;;;;14.85;6.70;;;;;;;18.78;100.00;96781.09;5078435;28;20733;-71
2023/09/26 10:35:24;;;;;;;12.70;6.15;;;;;;;18.93;100.00;96777.09;5076244;28;20590;-69
2023/09/26 10:37:54;;;;;;;18.20;7.53;;;;;;;19.17;100.00;96776.31;5076313;28;20295;-69
2023/09/26 10:40:22;;;;;;;14.05;7.50;;;;;;;18.79;100.00;96780.88;5074713;28;20224;-68
2023/09/26 10:42:50;;;;;;;12.30;6.32;;;;;;;19.18;100.00;96775.28;5083381;28;20203;-71
2023/09/26 10:45:18;;;;;;;12.50;5.32;;;;;;;19.35;100.00;96776.41;5092218;28;20290;-69
2023/09/26 10:47:44;;;;;;;14.55;6.93;;;;;;;19.35;100.00;96779.09;5092725;28;20286;-69
2023/09/26 10:50:13;;;;;;;13.88;6.65;;;;;;;19.73;100.00;96776.06;5085272;28;20223;-69
2023/09/26 10:52:46;;;;;;;19.00;6.32;;;;;;;19.43;100.00;96779.63;5092611;28;20195;-69
2023/09/26 10:55:13;;;;;;;15.20;6.82;;;;;;;19.80;100.00;96778.66;5087008;28;20198;-69
2023/09/26 10:57:40;;;;;;;12.65;5.95;;;;;;;19.91;100.00;96773.44;5092273;28;20209;-70
2023/09/26 11:00:12;;;;;;;14.50;6.40;;;;;;;20.07;100.00;96774.72;5092494;28;20302;-69
2023/09/26 11:02:40;;;;;;;13.63;5.97;;;;;;;20.00;100.00;96780.13;5090938;28;20629;-69
2023/09/26 11:05:09;;;;;;;13.98;5.80;;;;;;;20.08;100.00;96779.03;5091688;28;20607;-70
2023/09/26 11:07:35;;;;;;;13.50;6.07;;;;;;;20.02;100.00;96778.06;5087523;28;20208;-70
2023/09/26 11:10:03;;;;;;;12.23;5.95;;;;;;;20.25;100.00;96771.00;5090148;28;20605;-72
2023/09/26 11:12:30;;;;;;;11.23;5.53;;;;;;;19.97;100.00;96772.56;5082592;28;20196;-69
2023/09/26 11:14:56;;;;;;;11.10;5.32;;;;;;;20.04;100.00;96773.28;5091304;28;20215;-70
2023/09/26 11:17:27;;;;;;;12.55;6.18;;;;;;;20.27;100.00;96770.78;5092297;28;20209;-70
2023/09/26 11:19:57;;;;;;;13.30;5.00;;;;;;;20.45;100.00;96760.03;5076470;28;20216;-69
2023/09/26 11:22:23;;;;;;;11.40;5.35;;;;;;;20.16;100.00;96758.13;5082912;28;20204;-69